sensor_id;sensor_type;location;lat;lon;timestamp;temperature;humidity
16271;DHT22;8243;49.048;8.396;2023-01-15T00:00:14;11.60;99.90
16271;DHT22;8243;49.048;8.396;2023-01-15T00:02:39;11.50;99.90
16271;DHT22;8243;49.048;8.396;2023-01-15T00:05:05;11.60;99.90
16271;DHT22;8243;49.048;8.396;2023-01-15T00:07:31;11.60;99.90
16271;DHT22;8243;49.048;8.396;2023-01-15T00:09:57;11.60;99.90
16271;DHT22;8243;49.048;8.396;2023-01-15T00:12:23;11.60;99.90
16271;DHT22;8243;49.048;8.396;2023-01-15T00:14:48;11.50;99.90
16271;DHT22;8243;49.048;8.396;2023-01-15T00:17:15;11.60;99.90
16271;DHT22;8243;49.048;8.396;2023-01-15T00:19:40;11.60;99.90
16271;DHT22;8243;49.048;8.396;2023-01-15T00:22:06;11.60;99.90
16271;DHT22;8243;49.048;8.396;2023-01-15T00:24:31;11.60;99.90
16271;DHT22;8243;49.048;8.396;2023-01-15T00:27:16;11.70;99.90
16271;DHT22;8243;49.048;8.396;2023-01-15T00:30:00;11.70;99.90
16271;DHT22;8243;49.048;8.396;2023-01-15T00:32:26;11.70;99.90
16271;DHT22;8243;49.048;8.396;2023-01-15T00:34:54;11.70;99.90
16271;DHT22;8243;49.048;8.396;2023-01-15T00:37:19;11.70;99.90
16271;DHT22;8243;49.048;8.396;2023-01-15T00:39:45;11.60;99.90
16271;DHT22;8243;49.048;8.396;2023-01-15T00:42:11;11.70;99.90
16271;DHT22;8243;49.048;8.396;2023-01-15T00:44:37;11.80;99.90
16271;DHT22;8243;49.048;8.396;2023-01-15T00:47:02;11.70;99.90
16271;DHT22;8243;49.048;8.396;2023-01-15T00:49:28;11.70;99.90
16271;DHT22;8243;49.048;8.396;2023-01-15T00:51:54;11.70;99.90
16271;DHT22;8243;49.048;8.396;2023-01-15T00:54:19;11.80;99.90
16271;DHT22;8243;49.048;8.396;2023-01-15T00:56:45;11.80;99.90
16271;DHT22;8243;49.048;8.396;2023-01-15T00:59:11;11.80;99.90
16271;DHT22;8243;49.048;8.396;2023-01-15T01:01:37;11.70;99.90
16271;DHT22;8243;49.048;8.396;2023-01-15T01:04:03;11.70;99.90
16271;DHT22;8243;49.048;8.396;2023-01-15T01:06:28;11.60;99.90
16271;DHT22;8243;49.048;8.396;2023-01-15T01:08:54;11.50;99.90
16271;DHT22;8243;49.048;8.396;2023-01-15T01:11:22;11.40;99.90
16271;DHT22;8243;49.048;8.396;2023-01-15T01:13:52;11.30;99.90
16271;DHT22;8243;49.048;8.396;2023-01-15T01:18:46;11.20;99.90
16271;DHT22;8243;49.048;8.396;2023-01-15T01:21:12;11.30;99.90
16271;DHT22;8243;49.048;8.396;2023-01-15T01:23:37;11.30;99.90
16271;DHT22;8243;49.048;8.396;2023-01-15T01:26:03;11.20;99.90
16271;DHT22;8243;49.048;8.396;2023-01-15T01:28:28;11.20;99.90
16271;DHT22;8243;49.048;8.396;2023-01-15T01:30:54;11.20;99.90
16271;DHT22;8243;49.048;8.396;2023-01-15T01:33:19;11.10;99.90
16271;DHT22;8243;49.048;8.396;2023-01-15T01:35:48;11.10;99.90
16271;DHT22;8243;49.048;8.396;2023-01-15T01:38:14;11.10;99.90
16271;DHT22;8243;49.048;8.396;2023-01-15T01:40:40;11.10;99.90
16271;DHT22;8243;49.048;8.396;2023-01-15T01:46:16;11.20;99.90
16271;DHT22;8243;49.048;8.396;2023-01-15T01:48:42;11.10;99.90
16271;DHT22;8243;49.048;8.396;2023-01-15T01:51:08;11.20;99.90
16271;DHT22;8243;49.048;8.396;2023-01-15T01:53:33;11.20;99.90
16271;DHT22;8243;49.048;8.396;2023-01-15T01:55:59;11.20;99.90
16271;DHT22;8243;49.048;8.396;2023-01-15T01:58:28;11.20;99.90
16271;DHT22;8243;49.048;8.396;2023-01-15T02:00:55;11.30;99.90
16271;DHT22;8243;49.048;8.396;2023-01-15T02:03:25;11.30;99.90
16271;DHT22;8243;49.048;8.396;2023-01-15T02:05:55;11.20;99.90
16271;DHT22;8243;49.048;8.396;2023-01-15T02:08:21;11.20;99.90
16271;DHT22;8243;49.048;8.396;2023-01-15T02:10:50;11.20;99.90
16271;DHT22;8243;49.048;8.396;2023-01-15T02:13:37;11.20;99.90
16271;DHT22;8243;49.048;8.396;2023-01-15T02:16:23;11.30;99.90
16271;DHT22;8243;49.048;8.396;2023-01-15T02:22:00;11.30;99.90
16271;DHT22;8243;49.048;8.396;2023-01-15T02:27:30;11.30;99.90
16271;DHT22;8243;49.048;8.396;2023-01-15T02:30:16;11.30;99.90
16271;DHT22;8243;49.048;8.396;2023-01-15T02:32:50;11.40;99.90
16271;DHT22;8243;49.048;8.396;2023-01-15T02:35:19;11.30;99.90
16271;DHT22;8243;49.048;8.396;2023-01-15T02:37:50;11.30;99.90
16271;DHT22;8243;49.048;8.396;2023-01-15T02:40:20;11.30;99.90
16271;DHT22;8243;49.048;8.396;2023-01-15T02:42:47;11.30;99.90
16271;DHT22;8243;49.048;8.396;2023-01-15T02:45:16;11.40;99.90
16271;DHT22;8243;49.048;8.396;2023-01-15T02:47:44;11.30;99.90
16271;DHT22;8243;49.048;8.396;2023-01-15T02:50:14;11.30;99.90
16271;DHT22;8243;49.048;8.396;2023-01-15T02:52:44;11.40;99.90
16271;DHT22;8243;49.048;8.396;2023-01-15T02:55:21;11.40;99.90
16271;DHT22;8243;49.048;8.396;2023-01-15T02:57:50;11.40;99.90
16271;DHT22;8243;49.048;8.396;2023-01-15T03:00:20;11.40;99.90
16271;DHT22;8243;49.048;8.396;2023-01-15T03:02:53;11.40;99.90
16271;DHT22;8243;49.048;8.396;2023-01-15T03:05:25;11.40;99.90
16271;DHT22;8243;49.048;8.396;2023-01-15T03:07:54;11.50;99.90
16271;DHT22;8243;49.048;8.396;2023-01-15T03:10:30;11.60;99.90
16271;DHT22;8243;49.048;8.396;2023-01-15T03:13:01;11.70;99.90
16271;DHT22;8243;49.048;8.396;2023-01-15T03:15:41;11.70;99.90
16271;DHT22;8243;49.048;8.396;2023-01-15T03:18:28;11.70;99.90
16271;DHT22;8243;49.048;8.396;2023-01-15T03:20:59;11.70;99.90
16271;DHT22;8243;49.048;8.396;2023-01-15T03:23:28;11.70;99.90
16271;DHT22;8243;49.048;8.396;2023-01-15T03:25:54;11.70;99.90
16271;DHT22;8243;49.048;8.396;2023-01-15T03:28:24;11.70;99.90
16271;DHT22;8243;49.048;8.396;2023-01-15T03:30:50;11.70;99.90
16271;DHT22;8243;49.048;8.396;2023-01-15T03:33:17;11.60;99.90
16271;DHT22;8243;49.048;8.396;2023-01-15T03:35:52;11.60;99.90
16271;DHT22;8243;49.048;8.396;2023-01-15T03:38:23;11.60;99.90
16271;DHT22;8243;49.048;8.396;2023-01-15T03:43:51;11.60;99.90
16271;DHT22;8243;49.048;8.396;2023-01-15T03:47:01;11.60;99.90
16271;DHT22;8243;49.048;8.396;2023-01-15T03:52:36;11.00;99.90
16271;DHT22;8243;49.048;8.396;2023-01-15T04:00:52;10.30;99.90
16271;DHT22;8243;49.048;8.396;2023-01-15T04:03:18;10.10;99.90
16271;DHT22;8243;49.048;8.396;2023-01-15T04:05:47;10.00;99.90
16271;DHT22;8243;49.048;8.396;2023-01-15T04:08:13;9.90;99.90
16271;DHT22;8243;49.048;8.396;2023-01-15T04:10:59;9.70;99.90
16271;DHT22;8243;49.048;8.396;2023-01-15T04:13:26;9.60;99.90
16271;DHT22;8243;49.048;8.396;2023-01-15T04:15:52;9.50;99.90
16271;DHT22;8243;49.048;8.396;2023-01-15T04:18:18;9.40;99.90
16271;DHT22;8243;49.048;8.396;2023-01-15T04:20:44;9.30;99.90
16271;DHT22;8243;49.048;8.396;2023-01-15T04:23:10;9.20;99.90
16271;DHT22;8243;49.048;8.396;2023-01-15T04:25:36;9.10;99.90
16271;DHT22;8243;49.048;8.396;2023-01-15T04:28:02;9.00;99.90
16271;DHT22;8243;49.048;8.396;2023-01-15T04:30:28;9.00;99.90
16271;DHT22;8243;49.048;8.396;2023-01-15T04:32:53;8.90;99.90
16271;DHT22;8243;49.048;8.396;2023-01-15T04:35:19;8.90;99.90
16271;DHT22;8243;49.048;8.396;2023-01-15T04:37:45;8.80;99.90
16271;DHT22;8243;49.048;8.396;2023-01-15T04:40:11;8.80;99.90
16271;DHT22;8243;49.048;8.396;2023-01-15T04:43:00;8.80;99.90
16271;DHT22;8243;49.048;8.396;2023-01-15T04:46:01;8.80;99.90
16271;DHT22;8243;49.048;8.396;2023-01-15T04:48:26;8.70;99.90
16271;DHT22;8243;49.048;8.396;2023-01-15T04:50:52;8.70;99.90
16271;DHT22;8243;49.048;8.396;2023-01-15T04:53:17;8.70;99.90
16271;DHT22;8243;49.048;8.396;2023-01-15T04:55:43;8.70;99.90
16271;DHT22;8243;49.048;8.396;2023-01-15T04:58:08;8.60;99.90
16271;DHT22;8243;49.048;8.396;2023-01-15T05:00:34;8.60;99.90
16271;DHT22;8243;49.048;8.396;2023-01-15T05:03:00;8.60;99.90
16271;DHT22;8243;49.048;8.396;2023-01-15T05:05:25;8.60;99.90
16271;DHT22;8243;49.048;8.396;2023-01-15T05:07:51;8.60;99.90
16271;DHT22;8243;49.048;8.396;2023-01-15T05:10:17;8.60;99.90
16271;DHT22;8243;49.048;8.396;2023-01-15T05:12:43;8.60;99.90
16271;DHT22;8243;49.048;8.396;2023-01-15T05:15:08;8.50;99.90
16271;DHT22;8243;49.048;8.396;2023-01-15T05:17:34;8.50;99.90
16271;DHT22;8243;49.048;8.396;2023-01-15T05:20:00;8.50;99.90
16271;DHT22;8243;49.048;8.396;2023-01-15T05:22:25;8.50;99.90
16271;DHT22;8243;49.048;8.396;2023-01-15T05:24:51;8.50;99.90
16271;DHT22;8243;49.048;8.396;2023-01-15T05:27:16;8.50;99.90
16271;DHT22;8243;49.048;8.396;2023-01-15T05:29:42;8.50;99.90
16271;DHT22;8243;49.048;8.396;2023-01-15T05:32:07;8.40;99.90
16271;DHT22;8243;49.048;8.396;2023-01-15T05:34:33;8.40;99.90
16271;DHT22;8243;49.048;8.396;2023-01-15T05:36:59;8.40;99.90
16271;DHT22;8243;49.048;8.396;2023-01-15T05:39:24;8.30;99.90
16271;DHT22;8243;49.048;8.396;2023-01-15T05:41:50;8.30;99.90
16271;DHT22;8243;49.048;8.396;2023-01-15T05:44:16;8.30;99.90
16271;DHT22;8243;49.048;8.396;2023-01-15T05:46:43;8.30;99.90
16271;DHT22;8243;49.048;8.396;2023-01-15T05:49:12;8.20;99.90
16271;DHT22;8243;49.048;8.396;2023-01-15T05:51:38;8.10;99.90
16271;DHT22;8243;49.048;8.396;2023-01-15T05:54:06;8.00;99.90
16271;DHT22;8243;49.048;8.396;2023-01-15T05:56:36;8.00;99.90
16271;DHT22;8243;49.048;8.396;2023-01-15T05:59:02;7.90;99.90
16271;DHT22;8243;49.048;8.396;2023-01-15T06:01:28;7.80;99.90
16271;DHT22;8243;49.048;8.396;2023-01-15T06:04:00;7.80;99.90
16271;DHT22;8243;49.048;8.396;2023-01-15T06:06:27;7.70;99.90
16271;DHT22;8243;49.048;8.396;2023-01-15T06:08:53;7.60;99.90
16271;DHT22;8243;49.048;8.396;2023-01-15T06:11:19;7.60;99.90
16271;DHT22;8243;49.048;8.396;2023-01-15T06:13:45;7.60;99.90
16271;DHT22;8243;49.048;8.396;2023-01-15T06:16:10;7.50;99.90
16271;DHT22;8243;49.048;8.396;2023-01-15T06:18:37;7.50;99.90
16271;DHT22;8243;49.048;8.396;2023-01-15T06:21:04;7.50;99.90
16271;DHT22;8243;49.048;8.396;2023-01-15T06:23:31;7.40;99.90
16271;DHT22;8243;49.048;8.396;2023-01-15T06:26:00;7.40;99.90
16271;DHT22;8243;49.048;8.396;2023-01-15T06:28:26;7.40;99.90
16271;DHT22;8243;49.048;8.396;2023-01-15T06:30:52;7.30;99.90
16271;DHT22;8243;49.048;8.396;2023-01-15T06:33:17;7.30;99.90
16271;DHT22;8243;49.048;8.396;2023-01-15T06:35:43;7.30;99.90
16271;DHT22;8243;49.048;8.396;2023-01-15T06:38:08;7.20;99.90
16271;DHT22;8243;49.048;8.396;2023-01-15T06:40:34;7.20;99.90
16271;DHT22;8243;49.048;8.396;2023-01-15T06:43:00;7.20;99.90
16271;DHT22;8243;49.048;8.396;2023-01-15T06:45:45;7.20;99.90
16271;DHT22;8243;49.048;8.396;2023-01-15T06:48:29;7.20;99.90
16271;DHT22;8243;49.048;8.396;2023-01-15T06:50:54;7.10;99.90
16271;DHT22;8243;49.048;8.396;2023-01-15T06:53:20;7.10;99.90
16271;DHT22;8243;49.048;8.396;2023-01-15T06:55:46;7.10;99.90
16271;DHT22;8243;49.048;8.396;2023-01-15T06:58:12;7.10;99.90
16271;DHT22;8243;49.048;8.396;2023-01-15T07:00:37;7.10;99.90
16271;DHT22;8243;49.048;8.396;2023-01-15T07:03:04;7.10;99.90
16271;DHT22;8243;49.048;8.396;2023-01-15T07:05:29;7.10;99.90
16271;DHT22;8243;49.048;8.396;2023-01-15T07:07:56;7.00;99.90
16271;DHT22;8243;49.048;8.396;2023-01-15T07:10:22;7.00;99.90
16271;DHT22;8243;49.048;8.396;2023-01-15T07:12:47;7.00;99.90
16271;DHT22;8243;49.048;8.396;2023-01-15T07:15:13;7.00;99.90
16271;DHT22;8243;49.048;8.396;2023-01-15T07:17:39;6.90;99.90
16271;DHT22;8243;49.048;8.396;2023-01-15T07:20:05;7.00;99.90
16271;DHT22;8243;49.048;8.396;2023-01-15T07:22:31;7.00;99.90
16271;DHT22;8243;49.048;8.396;2023-01-15T07:24:56;6.90;99.90
16271;DHT22;8243;49.048;8.396;2023-01-15T07:27:22;6.90;99.90
16271;DHT22;8243;49.048;8.396;2023-01-15T07:29:48;6.90;99.90
16271;DHT22;8243;49.048;8.396;2023-01-15T07:32:15;6.90;99.90
16271;DHT22;8243;49.048;8.396;2023-01-15T07:34:41;6.90;99.90
16271;DHT22;8243;49.048;8.396;2023-01-15T07:37:06;6.90;99.90
16271;DHT22;8243;49.048;8.396;2023-01-15T07:39:32;6.90;99.90
16271;DHT22;8243;49.048;8.396;2023-01-15T07:41:58;6.90;99.90
16271;DHT22;8243;49.048;8.396;2023-01-15T07:44:42;6.90;99.90
16271;DHT22;8243;49.048;8.396;2023-01-15T07:47:26;6.90;99.90
16271;DHT22;8243;49.048;8.396;2023-01-15T07:50:14;6.90;99.90
16271;DHT22;8243;49.048;8.396;2023-01-15T07:52:40;6.90;99.90
16271;DHT22;8243;49.048;8.396;2023-01-15T07:55:06;6.90;99.90
16271;DHT22;8243;49.048;8.396;2023-01-15T07:57:33;6.90;99.90
16271;DHT22;8243;49.048;8.396;2023-01-15T07:59:59;6.90;99.90
16271;DHT22;8243;49.048;8.396;2023-01-15T08:02:25;6.90;99.90
16271;DHT22;8243;49.048;8.396;2023-01-15T08:04:51;6.90;99.90
16271;DHT22;8243;49.048;8.396;2023-01-15T08:07:17;6.90;99.90
16271;DHT22;8243;49.048;8.396;2023-01-15T08:09:42;6.90;99.90
16271;DHT22;8243;49.048;8.396;2023-01-15T08:12:09;6.90;99.90
16271;DHT22;8243;49.048;8.396;2023-01-15T08:14:54;6.90;99.90
16271;DHT22;8243;49.048;8.396;2023-01-15T08:17:42;6.80;99.90
16271;DHT22;8243;49.048;8.396;2023-01-15T08:20:17;6.80;99.90
16271;DHT22;8243;49.048;8.396;2023-01-15T08:22:43;6.80;99.90
16271;DHT22;8243;49.048;8.396;2023-01-15T08:25:11;6.80;99.90
16271;DHT22;8243;49.048;8.396;2023-01-15T08:27:37;6.80;99.90
16271;DHT22;8243;49.048;8.396;2023-01-15T08:30:04;6.70;99.90
16271;DHT22;8243;49.048;8.396;2023-01-15T08:32:30;6.70;99.90
16271;DHT22;8243;49.048;8.396;2023-01-15T08:34:56;6.70;99.90
16271;DHT22;8243;49.048;8.396;2023-01-15T08:37:21;6.70;99.90
16271;DHT22;8243;49.048;8.396;2023-01-15T08:39:47;6.70;99.90
16271;DHT22;8243;49.048;8.396;2023-01-15T08:42:13;6.60;99.90
16271;DHT22;8243;49.048;8.396;2023-01-15T08:44:38;6.60;99.90
16271;DHT22;8243;49.048;8.396;2023-01-15T08:47:04;6.60;99.90
16271;DHT22;8243;49.048;8.396;2023-01-15T08:49:29;6.60;99.90
16271;DHT22;8243;49.048;8.396;2023-01-15T08:51:55;6.60;99.90
16271;DHT22;8243;49.048;8.396;2023-01-15T08:54:21;6.50;99.90
16271;DHT22;8243;49.048;8.396;2023-01-15T08:56:49;6.50;99.90
16271;DHT22;8243;49.048;8.396;2023-01-15T08:59:14;6.50;99.90
16271;DHT22;8243;49.048;8.396;2023-01-15T09:01:40;6.40;99.90
16271;DHT22;8243;49.048;8.396;2023-01-15T09:04:06;6.40;99.90
16271;DHT22;8243;49.048;8.396;2023-01-15T09:06:32;6.40;99.90
16271;DHT22;8243;49.048;8.396;2023-01-15T09:09:00;6.40;99.90
16271;DHT22;8243;49.048;8.396;2023-01-15T09:11:25;6.30;99.90
16271;DHT22;8243;49.048;8.396;2023-01-15T09:13:51;6.30;99.90
16271;DHT22;8243;49.048;8.396;2023-01-15T09:16:18;6.30;99.90
16271;DHT22;8243;49.048;8.396;2023-01-15T09:18:43;6.30;99.90
16271;DHT22;8243;49.048;8.396;2023-01-15T09:21:09;6.30;99.90
16271;DHT22;8243;49.048;8.396;2023-01-15T09:23:35;6.30;99.90
16271;DHT22;8243;49.048;8.396;2023-01-15T09:26:03;6.30;99.90
16271;DHT22;8243;49.048;8.396;2023-01-15T09:28:31;6.20;99.90
16271;DHT22;8243;49.048;8.396;2023-01-15T09:30:57;6.20;99.90
16271;DHT22;8243;49.048;8.396;2023-01-15T09:33:23;6.20;99.90
16271;DHT22;8243;49.048;8.396;2023-01-15T09:35:48;6.20;99.90
16271;DHT22;8243;49.048;8.396;2023-01-15T09:38:16;6.10;99.90
16271;DHT22;8243;49.048;8.396;2023-01-15T09:40:56;6.10;99.90
16271;DHT22;8243;49.048;8.396;2023-01-15T09:46:15;6.10;99.90
16271;DHT22;8243;49.048;8.396;2023-01-15T09:48:54;6.10;99.90
16271;DHT22;8243;49.048;8.396;2023-01-15T09:51:48;6.10;99.90
16271;DHT22;8243;49.048;8.396;2023-01-15T09:55:09;6.10;99.90
16271;DHT22;8243;49.048;8.396;2023-01-15T09:57:11;6.00;99.90
16271;DHT22;8243;49.048;8.396;2023-01-15T09:59:41;6.00;99.90
16271;DHT22;8243;49.048;8.396;2023-01-15T10:02:33;6.00;99.90
16271;DHT22;8243;49.048;8.396;2023-01-15T10:05:27;6.00;99.90
16271;DHT22;8243;49.048;8.396;2023-01-15T10:08:23;6.00;99.90
16271;DHT22;8243;49.048;8.396;2023-01-15T10:10:57;6.00;99.90
16271;DHT22;8243;49.048;8.396;2023-01-15T10:16:08;6.00;99.90
16271;DHT22;8243;49.048;8.396;2023-01-15T10:18:35;6.00;99.90
16271;DHT22;8243;49.048;8.396;2023-01-15T10:22:05;6.00;99.90
16271;DHT22;8243;49.048;8.396;2023-01-15T10:27:21;5.90;99.90
16271;DHT22;8243;49.048;8.396;2023-01-15T10:29:56;6.00;99.90
16271;DHT22;8243;49.048;8.396;2023-01-15T10:32:51;6.00;99.90
16271;DHT22;8243;49.048;8.396;2023-01-15T10:38:06;5.90;99.90
16271;DHT22;8243;49.048;8.396;2023-01-15T10:40:48;5.90;99.90
16271;DHT22;8243;49.048;8.396;2023-01-15T10:46:15;5.90;99.90
16271;DHT22;8243;49.048;8.396;2023-01-15T10:48:56;5.80;99.90
16271;DHT22;8243;49.048;8.396;2023-01-15T10:51:27;5.80;99.90
16271;DHT22;8243;49.048;8.396;2023-01-15T10:56:43;5.80;99.90
16271;DHT22;8243;49.048;8.396;2023-01-15T10:59:49;5.80;99.90
16271;DHT22;8243;49.048;8.396;2023-01-15T11:02:43;5.70;99.90
16271;DHT22;8243;49.048;8.396;2023-01-15T11:05:18;5.80;99.90
16271;DHT22;8243;49.048;8.396;2023-01-15T11:07:52;5.70;99.90
16271;DHT22;8243;49.048;8.396;2023-01-15T11:10:20;5.70;99.90
16271;DHT22;8243;49.048;8.396;2023-01-15T11:13:17;5.60;99.90
16271;DHT22;8243;49.048;8.396;2023-01-15T11:16:02;5.60;99.90
16271;DHT22;8243;49.048;8.396;2023-01-15T11:18:47;5.50;99.90
16271;DHT22;8243;49.048;8.396;2023-01-15T11:21:32;5.50;99.90
16271;DHT22;8243;49.048;8.396;2023-01-15T11:23:58;5.50;99.90
16271;DHT22;8243;49.048;8.396;2023-01-15T11:26:30;5.50;99.90
16271;DHT22;8243;49.048;8.396;2023-01-15T11:28:58;5.50;99.90
16271;DHT22;8243;49.048;8.396;2023-01-15T11:31:35;5.40;99.90
16271;DHT22;8243;49.048;8.396;2023-01-15T11:34:03;5.50;99.90
16271;DHT22;8243;49.048;8.396;2023-01-15T11:36:30;5.50;99.90
16271;DHT22;8243;49.048;8.396;2023-01-15T11:38:56;5.50;99.90
16271;DHT22;8243;49.048;8.396;2023-01-15T11:44:11;5.50;99.90
16271;DHT22;8243;49.048;8.396;2023-01-15T11:46:56;5.60;99.90
16271;DHT22;8243;49.048;8.396;2023-01-15T11:49:49;5.50;99.90
16271;DHT22;8243;49.048;8.396;2023-01-15T11:52:45;5.50;99.90
16271;DHT22;8243;49.048;8.396;2023-01-15T11:55:15;5.50;99.90
16271;DHT22;8243;49.048;8.396;2023-01-15T11:57:43;5.60;99.90
16271;DHT22;8243;49.048;8.396;2023-01-15T12:00:20;5.60;99.90
16271;DHT22;8243;49.048;8.396;2023-01-15T12:02:48;5.70;99.90
16271;DHT22;8243;49.048;8.396;2023-01-15T12:05:18;5.80;99.90
16271;DHT22;8243;49.048;8.396;2023-01-15T12:07:45;5.80;99.90
16271;DHT22;8243;49.048;8.396;2023-01-15T12:10:21;5.90;99.90
16271;DHT22;8243;49.048;8.396;2023-01-15T12:13:10;5.90;99.90
16271;DHT22;8243;49.048;8.396;2023-01-15T12:16:20;6.00;99.90
16271;DHT22;8243;49.048;8.396;2023-01-15T12:19:09;6.10;99.90
16271;DHT22;8243;49.048;8.396;2023-01-15T12:22:12;6.10;99.90
16271;DHT22;8243;49.048;8.396;2023-01-15T12:33:35;6.20;99.90
16271;DHT22;8243;49.048;8.396;2023-01-15T12:38:49;6.20;99.90
16271;DHT22;8243;49.048;8.396;2023-01-15T12:41:25;6.30;99.90
16271;DHT22;8243;49.048;8.396;2023-01-15T12:43:55;6.40;99.90
16271;DHT22;8243;49.048;8.396;2023-01-15T12:46:42;6.50;99.90
16271;DHT22;8243;49.048;8.396;2023-01-15T12:49:35;6.60;99.90
16271;DHT22;8243;49.048;8.396;2023-01-15T12:52:10;6.70;99.90
16271;DHT22;8243;49.048;8.396;2023-01-15T12:54:43;6.70;99.90
16271;DHT22;8243;49.048;8.396;2023-01-15T12:57:15;6.80;99.90
16271;DHT22;8243;49.048;8.396;2023-01-15T12:59:55;6.90;99.90
16271;DHT22;8243;49.048;8.396;2023-01-15T13:02:33;6.90;99.90
16271;DHT22;8243;49.048;8.396;2023-01-15T13:05:19;7.10;99.90
16271;DHT22;8243;49.048;8.396;2023-01-15T13:07:54;7.00;99.90
16271;DHT22;8243;49.048;8.396;2023-01-15T13:10:27;7.00;99.90
16271;DHT22;8243;49.048;8.396;2023-01-15T13:13:08;7.00;99.90
16271;DHT22;8243;49.048;8.396;2023-01-15T13:15:39;7.10;99.00
16271;DHT22;8243;49.048;8.396;2023-01-15T13:18:25;7.10;97.20
16271;DHT22;8243;49.048;8.396;2023-01-15T13:20:55;7.10;97.60
16271;DHT22;8243;49.048;8.396;2023-01-15T13:26:56;7.20;96.90
16271;DHT22;8243;49.048;8.396;2023-01-15T13:29:51;7.20;97.20
16271;DHT22;8243;49.048;8.396;2023-01-15T13:32:25;7.30;97.50
16271;DHT22;8243;49.048;8.396;2023-01-15T13:35:04;7.40;97.00
16271;DHT22;8243;49.048;8.396;2023-01-15T13:37:43;7.40;96.60
16271;DHT22;8243;49.048;8.396;2023-01-15T13:40:22;7.40;96.30
16271;DHT22;8243;49.048;8.396;2023-01-15T13:42:50;7.40;95.80
16271;DHT22;8243;49.048;8.396;2023-01-15T13:45:23;7.40;96.10
16271;DHT22;8243;49.048;8.396;2023-01-15T13:48:01;7.60;95.20
16271;DHT22;8243;49.048;8.396;2023-01-15T13:50:30;7.70;94.10
16271;DHT22;8243;49.048;8.396;2023-01-15T13:55:37;7.70;94.00
16271;DHT22;8243;49.048;8.396;2023-01-15T13:58:20;7.70;93.40
16271;DHT22;8243;49.048;8.396;2023-01-15T14:00:47;7.60;92.90
16271;DHT22;8243;49.048;8.396;2023-01-15T14:03:31;7.50;93.40
16271;DHT22;8243;49.048;8.396;2023-01-15T14:06:03;7.40;93.90
16271;DHT22;8243;49.048;8.396;2023-01-15T14:08:43;7.40;93.90
16271;DHT22;8243;49.048;8.396;2023-01-15T14:14:31;7.40;96.90
16271;DHT22;8243;49.048;8.396;2023-01-15T14:31:44;6.50;99.90
16271;DHT22;8243;49.048;8.396;2023-01-15T14:34:29;6.50;99.90
16271;DHT22;8243;49.048;8.396;2023-01-15T14:37:04;6.50;99.90
16271;DHT22;8243;49.048;8.396;2023-01-15T14:45:06;6.70;99.90
16271;DHT22;8243;49.048;8.396;2023-01-15T14:47:43;6.70;99.90
16271;DHT22;8243;49.048;8.396;2023-01-15T14:50:35;6.70;99.90
16271;DHT22;8243;49.048;8.396;2023-01-15T14:58:42;6.90;99.90
16271;DHT22;8243;49.048;8.396;2023-01-15T15:01:42;6.90;99.90
16271;DHT22;8243;49.048;8.396;2023-01-15T15:06:54;6.70;99.90
16271;DHT22;8243;49.048;8.396;2023-01-15T15:12:28;6.70;99.90
16271;DHT22;8243;49.048;8.396;2023-01-15T15:15:04;6.70;99.90
16271;DHT22;8243;49.048;8.396;2023-01-15T15:20:14;6.80;99.90
16271;DHT22;8243;49.048;8.396;2023-01-15T15:22:43;6.80;99.90
16271;DHT22;8243;49.048;8.396;2023-01-15T15:25:18;6.80;99.90
16271;DHT22;8243;49.048;8.396;2023-01-15T15:27:45;6.80;99.90
16271;DHT22;8243;49.048;8.396;2023-01-15T15:30:11;6.80;99.90
16271;DHT22;8243;49.048;8.396;2023-01-15T15:32:40;6.80;99.90
16271;DHT22;8243;49.048;8.396;2023-01-15T15:35:24;6.80;99.90
16271;DHT22;8243;49.048;8.396;2023-01-15T15:37:52;6.80;99.90
16271;DHT22;8243;49.048;8.396;2023-01-15T15:40:19;6.80;99.90
16271;DHT22;8243;49.048;8.396;2023-01-15T15:43:00;6.90;99.90
16271;DHT22;8243;49.048;8.396;2023-01-15T15:45:54;6.90;99.90
16271;DHT22;8243;49.048;8.396;2023-01-15T15:48:39;6.90;99.00
16271;DHT22;8243;49.048;8.396;2023-01-15T15:54:18;6.90;97.90
16271;DHT22;8243;49.048;8.396;2023-01-15T15:56:57;6.90;97.60
16271;DHT22;8243;49.048;8.396;2023-01-15T15:59:35;6.90;96.30
16271;DHT22;8243;49.048;8.396;2023-01-15T16:02:20;6.90;95.50
16271;DHT22;8243;49.048;8.396;2023-01-15T16:04:55;6.90;95.50
16271;DHT22;8243;49.048;8.396;2023-01-15T16:07:24;6.90;95.20
16271;DHT22;8243;49.048;8.396;2023-01-15T16:09:53;6.90;94.80
16271;DHT22;8243;49.048;8.396;2023-01-15T16:12:21;6.90;94.60
16271;DHT22;8243;49.048;8.396;2023-01-15T16:14:48;6.90;94.70
16271;DHT22;8243;49.048;8.396;2023-01-15T16:17:14;6.90;94.80
16271;DHT22;8243;49.048;8.396;2023-01-15T16:19:41;6.90;94.30
16271;DHT22;8243;49.048;8.396;2023-01-15T16:22:07;6.90;94.00
16271;DHT22;8243;49.048;8.396;2023-01-15T16:24:35;6.90;93.70
16271;DHT22;8243;49.048;8.396;2023-01-15T16:27:03;6.80;93.70
16271;DHT22;8243;49.048;8.396;2023-01-15T16:29:34;6.80;93.70
16271;DHT22;8243;49.048;8.396;2023-01-15T16:32:01;6.70;93.80
16271;DHT22;8243;49.048;8.396;2023-01-15T16:34:37;6.70;93.60
16271;DHT22;8243;49.048;8.396;2023-01-15T16:37:20;6.60;93.80
16271;DHT22;8243;49.048;8.396;2023-01-15T16:39:46;6.60;93.60
16271;DHT22;8243;49.048;8.396;2023-01-15T16:42:37;6.50;93.50
16271;DHT22;8243;49.048;8.396;2023-01-15T16:45:26;6.50;93.20
16271;DHT22;8243;49.048;8.396;2023-01-15T16:48:01;6.50;92.90
16271;DHT22;8243;49.048;8.396;2023-01-15T16:50:31;6.50;92.10
16271;DHT22;8243;49.048;8.396;2023-01-15T16:52:58;6.50;91.90
16271;DHT22;8243;49.048;8.396;2023-01-15T16:55:37;6.60;90.50
16271;DHT22;8243;49.048;8.396;2023-01-15T16:58:19;6.60;88.90
16271;DHT22;8243;49.048;8.396;2023-01-15T17:00:51;6.60;88.60
16271;DHT22;8243;49.048;8.396;2023-01-15T17:03:25;6.60;87.10
16271;DHT22;8243;49.048;8.396;2023-01-15T17:05:54;6.60;86.00
16271;DHT22;8243;49.048;8.396;2023-01-15T17:08:25;6.60;84.70
16271;DHT22;8243;49.048;8.396;2023-01-15T17:11:02;6.60;84.40
16271;DHT22;8243;49.048;8.396;2023-01-15T17:13:35;6.50;85.20
16271;DHT22;8243;49.048;8.396;2023-01-15T17:16:14;6.60;84.10
16271;DHT22;8243;49.048;8.396;2023-01-15T17:18:40;6.70;82.40
16271;DHT22;8243;49.048;8.396;2023-01-15T17:21:08;6.60;83.00
16271;DHT22;8243;49.048;8.396;2023-01-15T17:23:38;6.50;81.70
16271;DHT22;8243;49.048;8.396;2023-01-15T17:26:05;6.50;82.20
16271;DHT22;8243;49.048;8.396;2023-01-15T17:28:31;6.40;82.50
16271;DHT22;8243;49.048;8.396;2023-01-15T17:30:59;6.40;83.10
16271;DHT22;8243;49.048;8.396;2023-01-15T17:33:26;6.40;83.70
16271;DHT22;8243;49.048;8.396;2023-01-15T17:35:52;6.40;83.10
16271;DHT22;8243;49.048;8.396;2023-01-15T17:38:18;6.40;82.60
16271;DHT22;8243;49.048;8.396;2023-01-15T17:40:44;6.40;81.50
16271;DHT22;8243;49.048;8.396;2023-01-15T17:43:12;6.40;81.30
16271;DHT22;8243;49.048;8.396;2023-01-15T17:45:39;6.40;81.50
16271;DHT22;8243;49.048;8.396;2023-01-15T17:48:05;6.30;81.00
16271;DHT22;8243;49.048;8.396;2023-01-15T17:50:34;5.90;80.30
16271;DHT22;8243;49.048;8.396;2023-01-15T17:53:00;6.40;79.70
16271;DHT22;8243;49.048;8.396;2023-01-15T17:55:26;6.20;77.90
16271;DHT22;8243;49.048;8.396;2023-01-15T17:58:12;6.40;78.00
16271;DHT22;8243;49.048;8.396;2023-01-15T18:00:56;6.40;78.00
16271;DHT22;8243;49.048;8.396;2023-01-15T18:03:47;6.40;78.20
16271;DHT22;8243;49.048;8.396;2023-01-15T18:06:33;6.30;78.20